createdAt,value
2022-09-10T00:01:36.904Z,90.60
2022-09-10T00:04:07.634Z,90.50
2022-09-10T00:06:35.487Z,90.30
2022-09-10T00:09:02.267Z,90.40
2022-09-10T00:11:32.513Z,90.60
2022-09-10T00:14:00.817Z,90.70
2022-09-10T00:16:28.318Z,90.80
2022-09-10T00:18:57.218Z,91.10
2022-09-10T00:21:24.042Z,91.10
2022-09-10T00:23:50.847Z,91.20
2022-09-10T00:26:29.873Z,91.30
2022-09-10T00:29:01.675Z,91.40
2022-09-10T00:31:30.376Z,91.50
2022-09-10T00:34:00.289Z,91.40
2022-09-10T00:36:29.875Z,91.60
2022-09-10T00:39:00.137Z,91.70
2022-09-10T00:41:27.438Z,91.70
2022-09-10T00:43:56.851Z,91.80
2022-09-10T00:46:43.370Z,91.90
2022-09-10T00:49:14.637Z,91.90
2022-09-10T00:51:42.122Z,92.00
2022-09-10T00:54:09.573Z,92.00
2022-09-10T00:56:36.998Z,92.10
2022-09-10T00:59:08.132Z,92.10
2022-09-10T01:01:36.666Z,92.10
2022-09-10T01:04:06.268Z,92.10
2022-09-10T01:06:33.959Z,92.10
2022-09-10T01:09:01.748Z,92.10
2022-09-10T01:11:37.828Z,92.10
2022-09-10T01:14:23.324Z,92.10
2022-09-10T01:17:21.001Z,92.10
2022-09-10T01:20:09.133Z,92.10
2022-09-10T01:22:53.776Z,92.10
2022-09-10T01:25:33.257Z,92.10
2022-09-10T01:28:05.523Z,92.10
2022-09-10T01:30:37.138Z,92.10
2022-09-10T01:33:23.827Z,92.10
2022-09-10T01:36:04.325Z,92.10
2022-09-10T01:38:38.479Z,92.10
2022-09-10T01:41:05.496Z,92.10
2022-09-10T01:43:33.181Z,92.10
2022-09-10T01:46:32.424Z,92.10
2022-09-10T01:49:40.178Z,92.10
2022-09-10T01:52:35.500Z,92.10
2022-09-10T01:55:11.117Z,92.00
2022-09-10T01:57:50.277Z,92.10
2022-09-10T02:00:18.563Z,92.00
2022-09-10T02:03:04.072Z,92.00
2022-09-10T02:05:35.186Z,92.00
2022-09-10T02:08:05.236Z,92.00
2022-09-10T02:10:32.049Z,92.10
2022-09-10T02:12:58.742Z,92.00
2022-09-10T02:15:28.613Z,92.10
2022-09-10T02:17:55.907Z,92.10
2022-09-10T02:20:23.453Z,92.10
2022-09-10T02:22:55.480Z,92.10
2022-09-10T02:25:22.211Z,92.10
2022-09-10T02:27:48.958Z,92.10
2022-09-10T02:30:16.888Z,92.10
2022-09-10T02:32:43.590Z,92.10
2022-09-10T02:35:10.635Z,92.10
2022-09-10T02:37:37.379Z,92.10
2022-09-10T02:40:05.502Z,92.10
2022-09-10T02:42:33.432Z,92.10
2022-09-10T02:45:00.327Z,92.10
2022-09-10T02:47:27.061Z,92.10
2022-09-10T02:49:53.790Z,92.20
2022-09-10T02:52:21.966Z,92.20
2022-09-10T02:54:50.372Z,92.10
2022-09-10T02:57:17.120Z,92.10
2022-09-10T02:59:43.814Z,92.20
2022-09-10T03:02:10.557Z,92.20
2022-09-10T03:04:37.592Z,92.20
2022-09-10T03:07:04.476Z,92.20
2022-09-10T03:09:31.140Z,92.20
2022-09-10T03:11:57.850Z,92.20
2022-09-10T03:14:24.657Z,92.20
2022-09-10T03:16:51.385Z,92.20
2022-09-10T03:19:18.125Z,92.20
2022-09-10T03:21:47.545Z,92.20
2022-09-10T03:24:15.539Z,92.20
2022-09-10T03:26:44.466Z,92.20
2022-09-10T03:29:11.782Z,92.30
2022-09-10T03:31:39.534Z,92.20
2022-09-10T03:34:06.528Z,92.30
2022-09-10T03:36:33.304Z,92.30
2022-09-10T03:39:00.027Z,92.20
2022-09-10T03:41:28.403Z,92.20
2022-09-10T03:43:55.598Z,92.20
2022-09-10T03:46:22.754Z,92.30
2022-09-10T03:48:53.345Z,92.30
2022-09-10T03:51:23.204Z,92.30
2022-09-10T03:53:50.042Z,92.30
2022-09-10T03:56:19.965Z,92.30
2022-09-10T03:58:49.151Z,92.30
2022-09-10T04:01:19.454Z,92.20
2022-09-10T04:03:47.024Z,92.20
2022-09-10T04:06:16.218Z,92.30
2022-09-10T04:08:46.412Z,92.30
2022-09-10T04:11:14.116Z,92.30
2022-09-10T04:13:40.798Z,92.30
2022-09-10T04:16:07.662Z,92.30
2022-09-10T04:18:35.183Z,92.30
2022-09-10T04:21:01.940Z,92.30
2022-09-10T04:23:29.424Z,92.30
2022-09-10T04:25:57.085Z,92.30
2022-09-10T04:28:24.147Z,92.30
2022-09-10T04:30:51.500Z,92.30
2022-09-10T04:33:18.612Z,92.30
2022-09-10T04:35:45.548Z,92.20
2022-09-10T04:38:12.224Z,92.20
2022-09-10T04:40:38.941Z,92.20
2022-09-10T04:43:05.745Z,92.20
2022-09-10T04:45:34.616Z,92.20
2022-09-10T04:48:06.209Z,92.20
2022-09-10T04:50:33.661Z,92.20
2022-09-10T04:53:01.165Z,92.20
2022-09-10T04:55:27.896Z,92.20
2022-09-10T04:57:54.621Z,92.20
2022-09-10T05:00:21.519Z,92.20
2022-09-10T05:02:48.792Z,92.30
2022-09-10T05:05:15.607Z,92.30
2022-09-10T05:07:42.394Z,92.30
2022-09-10T05:10:10.533Z,92.30
2022-09-10T05:12:38.510Z,92.30
2022-09-10T05:15:06.714Z,92.30
2022-09-10T05:17:34.074Z,92.30
2022-09-10T05:20:00.918Z,92.30
2022-09-10T05:22:34.908Z,92.30
2022-09-10T05:25:04.560Z,92.30
2022-09-10T05:27:31.223Z,92.30
2022-09-10T05:29:58.361Z,92.30
2022-09-10T05:32:25.248Z,92.30
2022-09-10T05:34:51.926Z,92.30
2022-09-10T05:37:18.785Z,92.30
2022-09-10T05:39:48.060Z,92.30
2022-09-10T05:42:15.248Z,92.30
2022-09-10T05:44:41.967Z,92.30
2022-09-10T05:47:08.793Z,92.30
2022-09-10T05:49:35.544Z,92.30
2022-09-10T05:52:02.477Z,92.30
2022-09-10T05:54:29.297Z,92.40
2022-09-10T05:56:58.604Z,92.30
2022-09-10T05:59:25.419Z,92.40
2022-09-10T06:01:52.251Z,92.40
2022-09-10T06:04:19.771Z,92.40
2022-09-10T06:06:47.829Z,92.40
2022-09-10T06:09:14.675Z,92.40
2022-09-10T06:11:41.851Z,92.40
2022-09-10T06:14:09.041Z,92.40
2022-09-10T06:16:35.772Z,92.40
2022-09-10T06:19:03.374Z,92.50
2022-09-10T06:21:30.091Z,92.50
2022-09-10T06:23:56.846Z,92.50
2022-09-10T06:26:23.842Z,92.50
2022-09-10T06:28:50.523Z,92.50
2022-09-10T06:31:18.062Z,92.50
2022-09-10T06:33:45.281Z,92.50
2022-09-10T06:36:12.465Z,92.60
2022-09-10T06:38:39.682Z,92.50
2022-09-10T06:41:12.025Z,92.50
2022-09-10T06:43:41.460Z,92.60
2022-09-10T06:46:50.940Z,92.60
2022-09-10T06:49:04.290Z,92.60
2022-09-10T06:51:31.357Z,92.60
2022-09-10T06:53:58.117Z,92.60
2022-09-10T06:56:25.157Z,92.60
2022-09-10T06:58:51.879Z,92.60
2022-09-10T07:01:20.527Z,92.60
2022-09-10T07:03:47.477Z,92.70
2022-09-10T07:06:17.258Z,92.60
2022-09-10T07:08:44.467Z,92.60
2022-09-10T07:11:13.587Z,92.60
2022-09-10T07:13:41.102Z,92.60
2022-09-10T07:16:08.316Z,92.60
2022-09-10T07:18:35.698Z,92.50
2022-09-10T07:21:10.149Z,92.50
2022-09-10T07:23:39.059Z,92.50
2022-09-10T07:26:08.044Z,92.60
2022-09-10T07:28:36.315Z,92.60
2022-09-10T07:31:13.182Z,92.70
2022-09-10T07:33:40.636Z,92.70
2022-09-10T07:36:08.270Z,92.70
2022-09-10T07:38:34.972Z,92.70
2022-09-10T07:41:02.200Z,92.70
2022-09-10T07:43:29.722Z,92.70
2022-09-10T07:45:59.086Z,92.80
2022-09-10T07:48:29.085Z,92.80
2022-09-10T07:51:02.422Z,92.70
2022-09-10T07:53:29.185Z,92.80
2022-09-10T07:56:04.007Z,92.90
2022-09-10T07:58:32.515Z,92.80
2022-09-10T08:01:00.105Z,92.80
2022-09-10T08:03:31.627Z,92.80
2022-09-10T08:06:02.479Z,92.80
2022-09-10T08:08:34.309Z,92.80
2022-09-10T08:11:11.764Z,92.70
2022-09-10T08:13:47.204Z,92.70
2022-09-10T08:16:23.131Z,92.60
2022-09-10T08:18:51.133Z,92.80
2022-09-10T08:21:19.011Z,92.80
2022-09-10T08:23:51.061Z,92.80
2022-09-10T08:26:18.636Z,92.60
2022-09-10T08:28:45.465Z,92.10
2022-09-10T08:31:12.855Z,91.90
2022-09-10T08:33:40.335Z,89.80
2022-09-10T08:36:10.473Z,91.40
2022-09-10T08:38:42.575Z,79.80
2022-09-10T08:41:21.866Z,85.50
2022-09-10T08:43:52.076Z,87.90
2022-09-10T08:46:25.402Z,82.90
2022-09-10T08:49:26.011Z,81.60
2022-09-10T08:52:24.791Z,88.80
2022-09-10T08:55:17.531Z,85.00
2022-09-10T08:57:52.008Z,83.60
2022-09-10T09:00:24.427Z,87.40
2022-09-10T09:03:05.922Z,87.20
2022-09-10T09:05:52.003Z,91.10
2022-09-10T09:08:27.719Z,91.30
2022-09-10T09:11:07.002Z,90.40
2022-09-10T09:14:04.875Z,86.90
2022-09-10T09:16:53.626Z,86.40
2022-09-10T09:19:53.811Z,92.00
2022-09-10T09:22:30.873Z,78.70
2022-09-10T09:25:13.838Z,80.30
2022-09-10T09:27:42.298Z,62.10
2022-09-10T09:30:16.987Z,80.50
2022-09-10T09:32:45.573Z,79.40
2022-09-10T09:35:22.688Z,85.60
2022-09-10T09:37:56.659Z,87.80
2022-09-10T09:40:37.316Z,83.00
2022-09-10T09:43:13.682Z,76.70
2022-09-10T09:45:45.549Z,63.60
2022-09-10T09:48:14.671Z,27.70
2022-09-10T09:50:45.501Z,34.80
2022-09-10T09:53:32.531Z,18.20
2022-09-10T09:56:02.046Z,16.20
2022-09-10T09:58:32.529Z,9.10
2022-09-10T10:01:05.169Z,6.80
2022-09-10T10:03:44.363Z,2.20
2022-09-10T10:06:12.292Z,3.40
2022-09-10T10:08:59.066Z,1.00
2022-09-10T10:11:55.081Z,3.10
2022-09-10T10:14:41.465Z,1.80
2022-09-10T10:17:32.482Z,1.00
2022-09-10T10:20:16.429Z,1.00
2022-09-10T10:22:45.387Z,1.00
2022-09-10T10:25:34.183Z,1.00
2022-09-10T10:28:01.039Z,1.00
2022-09-10T10:30:30.020Z,1.00
2022-09-10T10:33:02.644Z,1.00
2022-09-10T10:35:56.434Z,1.00
2022-09-10T10:38:30.559Z,1.00
2022-09-10T10:41:35.821Z,1.00
2022-09-10T10:44:13.320Z,1.00
2022-09-10T10:46:53.946Z,1.00
2022-09-10T10:49:50.477Z,1.00
2022-09-10T10:52:33.961Z,1.00
2022-09-10T10:55:31.446Z,1.00
2022-09-10T10:58:13.084Z,1.00
2022-09-10T11:00:46.795Z,1.00
2022-09-10T11:03:44.780Z,1.00
2022-09-10T11:06:15.857Z,1.00
2022-09-10T11:08:51.940Z,1.00
2022-09-10T11:11:28.634Z,1.00
2022-09-10T11:14:06.480Z,1.00
2022-09-10T11:16:44.539Z,1.00
2022-09-10T11:19:23.334Z,1.00
2022-09-10T11:22:06.900Z,1.00
2022-09-10T11:24:50.321Z,1.00
2022-09-10T11:27:39.207Z,1.00
2022-09-10T11:30:11.402Z,1.00
2022-09-10T11:33:01.600Z,1.00
2022-09-10T11:35:31.996Z,1.00
2022-09-10T11:38:32.470Z,1.00
2022-09-10T11:41:18.979Z,1.00
2022-09-10T11:43:53.177Z,1.00
2022-09-10T11:46:40.680Z,1.00
2022-09-10T11:49:13.608Z,1.00
2022-09-10T11:51:41.685Z,1.00
2022-09-10T11:54:18.049Z,1.00
2022-09-10T11:57:03.143Z,1.00
2022-09-10T11:59:55.588Z,1.00
2022-09-10T12:02:50.375Z,1.00
2022-09-10T12:06:04.947Z,1.00
2022-09-10T12:09:04.339Z,1.00
2022-09-10T12:11:47.897Z,1.00
2022-09-10T12:14:18.094Z,1.00
2022-09-10T12:16:51.693Z,1.00
2022-09-10T12:19:40.254Z,1.00
2022-09-10T12:22:19.004Z,1.00
2022-09-10T12:25:05.359Z,1.00
2022-09-10T12:27:47.330Z,1.00
2022-09-10T12:30:33.471Z,1.00
2022-09-10T12:33:07.447Z,1.00
2022-09-10T12:35:38.030Z,1.00
2022-09-10T12:38:42.223Z,1.00
2022-09-10T12:41:12.065Z,1.00
2022-09-10T12:43:41.900Z,1.00
2022-09-10T12:46:14.597Z,1.00
2022-09-10T12:48:48.889Z,1.00
2022-09-10T12:51:21.712Z,1.00
2022-09-10T12:54:16.996Z,1.00
2022-09-10T12:56:49.783Z,1.00
2022-09-10T12:59:38.828Z,1.00
2022-09-10T13:02:21.307Z,1.00
2022-09-10T13:04:55.321Z,1.00
2022-09-10T13:07:25.777Z,1.00
2022-09-10T13:10:06.308Z,1.00
2022-09-10T13:12:36.221Z,1.00
2022-09-10T13:15:03.719Z,1.00
2022-09-10T13:17:47.001Z,1.00
2022-09-10T13:20:19.926Z,1.00
2022-09-10T13:23:02.268Z,1.00
2022-09-10T13:25:44.950Z,1.00
2022-09-10T13:28:35.585Z,1.00
2022-09-10T13:31:08.767Z,1.00
2022-09-10T13:34:18.258Z,1.00
2022-09-10T13:37:20.255Z,1.00
2022-09-10T13:40:30.934Z,1.00
2022-09-10T13:44:01.205Z,1.00
2022-09-10T13:46:53.899Z,1.00
2022-09-10T13:49:45.204Z,1.00
2022-09-10T13:52:16.374Z,1.00
2022-09-10T13:54:50.345Z,1.00
2022-09-10T13:57:27.089Z,1.00
2022-09-10T14:00:23.687Z,1.00
2022-09-10T14:02:54.986Z,1.00
2022-09-10T14:05:34.314Z,1.00
2022-09-10T14:08:06.318Z,1.00
2022-09-10T14:10:48.612Z,1.00
2022-09-10T14:13:20.201Z,1.00
2022-09-10T14:15:47.649Z,1.00
2022-09-10T14:18:14.593Z,1.00
2022-09-10T14:20:42.623Z,1.00
2022-09-10T14:23:16.712Z,1.00
2022-09-10T14:25:45.076Z,1.00
2022-09-10T14:28:26.925Z,1.00
2022-09-10T14:31:23.394Z,1.00
2022-09-10T14:33:50.486Z,1.00
2022-09-10T14:36:20.634Z,1.00
2022-09-10T14:39:14.855Z,1.00
2022-09-10T14:41:42.003Z,1.00
2022-09-10T14:44:14.889Z,1.00
2022-09-10T14:47:00.644Z,1.00
2022-09-10T14:49:35.363Z,1.00
2022-09-10T14:52:04.067Z,1.00
2022-09-10T14:54:32.635Z,6.60
2022-09-10T14:57:13.967Z,14.90
2022-09-10T14:59:43.309Z,1.00
2022-09-10T15:02:24.495Z,4.80
2022-09-10T15:04:51.326Z,1.00
2022-09-10T15:07:18.184Z,1.00
2022-09-10T15:09:45.261Z,5.10
2022-09-10T15:12:25.516Z,4.60
2022-09-10T15:14:52.417Z,1.00
2022-09-10T15:17:20.034Z,1.00
2022-09-10T15:19:48.253Z,1.00
2022-09-10T15:22:23.417Z,1.00
2022-09-10T15:25:09.245Z,1.00
2022-09-10T15:27:36.683Z,1.00
2022-09-10T15:30:05.239Z,1.00
2022-09-10T15:32:32.123Z,1.00
2022-09-10T15:34:59.224Z,1.00
2022-09-10T15:37:26.034Z,1.00
2022-09-10T15:39:53.127Z,1.00
2022-09-10T15:42:19.883Z,1.00
2022-09-10T15:44:46.581Z,1.00
2022-09-10T15:47:13.316Z,1.00
2022-09-10T15:49:40.017Z,1.00
2022-09-10T15:52:06.711Z,1.00
2022-09-10T15:54:33.926Z,1.00
2022-09-10T15:57:01.149Z,1.00
2022-09-10T15:59:28.442Z,1.00
2022-09-10T16:01:55.262Z,1.00
2022-09-10T16:04:21.961Z,1.00
2022-09-10T16:06:48.715Z,1.00
2022-09-10T16:09:15.684Z,1.00
2022-09-10T16:11:42.925Z,1.00
2022-09-10T16:14:13.805Z,1.00
2022-09-10T16:16:40.988Z,1.00
2022-09-10T16:19:09.020Z,1.00
2022-09-10T16:21:37.796Z,1.00
2022-09-10T16:24:06.182Z,1.00
2022-09-10T16:26:39.133Z,1.00
2022-09-10T16:29:12.175Z,1.00
2022-09-10T16:31:39.543Z,1.00
2022-09-10T16:34:09.828Z,1.00
2022-09-10T16:36:38.397Z,1.00
2022-09-10T16:39:11.866Z,1.00
2022-09-10T16:41:46.204Z,1.00
2022-09-10T16:44:14.792Z,1.00
2022-09-10T16:46:42.339Z,1.00
2022-09-10T16:49:14.279Z,1.00
2022-09-10T16:51:42.414Z,1.00
2022-09-10T16:54:10.199Z,1.00
2022-09-10T16:56:42.121Z,1.00
2022-09-10T16:59:14.852Z,1.00
2022-09-10T17:01:48.401Z,1.00
2022-09-10T17:04:25.992Z,1.00
2022-09-10T17:06:55.889Z,1.00
2022-09-10T17:09:22.730Z,1.00
2022-09-10T17:11:49.474Z,1.00
2022-09-10T17:14:16.172Z,1.00
2022-09-10T17:16:43.743Z,2.40
2022-09-10T17:19:29.320Z,15.70
2022-09-10T17:21:56.826Z,59.20
2022-09-10T17:24:25.391Z,66.20
2022-09-10T17:26:53.090Z,81.10
2022-09-10T17:29:22.717Z,83.90
2022-09-10T17:31:52.097Z,88.90
2022-09-10T17:34:21.397Z,90.80
2022-09-10T17:36:49.102Z,91.10
2022-09-10T17:39:16.537Z,91.20
2022-09-10T17:41:43.481Z,91.80
2022-09-10T17:44:11.692Z,91.90
2022-09-10T17:46:39.028Z,92.00
2022-09-10T17:49:05.780Z,92.20
2022-09-10T17:51:34.680Z,92.50
2022-09-10T17:54:03.302Z,92.50
2022-09-10T17:56:30.701Z,92.50
2022-09-10T17:59:02.711Z,92.50
2022-09-10T18:01:32.586Z,92.50
2022-09-10T18:03:59.404Z,92.50
2022-09-10T18:06:28.847Z,92.50
2022-09-10T18:08:58.879Z,92.60
2022-09-10T18:11:28.412Z,92.70
2022-09-10T18:13:57.124Z,92.70
2022-09-10T18:16:26.478Z,92.70
2022-09-10T18:19:01.674Z,92.70
2022-09-10T18:21:31.333Z,92.70
2022-09-10T18:24:10.980Z,92.70
2022-09-10T18:26:40.059Z,92.60
2022-09-10T18:29:13.767Z,92.70
2022-09-10T18:31:55.809Z,92.60
2022-09-10T18:34:26.945Z,92.60
2022-09-10T18:36:57.653Z,92.50
2022-09-10T18:39:25.992Z,92.50
2022-09-10T18:41:53.155Z,92.50
2022-09-10T18:44:23.388Z,92.60
2022-09-10T18:46:51.143Z,92.60
2022-09-10T18:49:21.360Z,92.60
2022-09-10T18:51:49.240Z,92.50
2022-09-10T18:54:16.838Z,92.50
2022-09-10T18:56:44.987Z,92.50
2022-09-10T18:59:15.117Z,92.50
2022-09-10T19:01:43.711Z,92.50
2022-09-10T19:04:13.027Z,92.50
2022-09-10T19:06:42.497Z,92.50
2022-09-10T19:09:12.060Z,92.50
2022-09-10T19:11:41.654Z,92.60
2022-09-10T19:14:19.902Z,92.60
2022-09-10T19:16:48.263Z,92.70
2022-09-10T19:19:21.067Z,92.70
2022-09-10T19:21:53.298Z,92.70
2022-09-10T19:24:32.806Z,92.60
2022-09-10T19:27:04.925Z,92.60
2022-09-10T19:29:31.707Z,92.60
2022-09-10T19:31:58.395Z,92.60
2022-09-10T19:34:26.811Z,92.60
2022-09-10T19:36:53.661Z,92.60
2022-09-10T19:39:20.525Z,92.60
2022-09-10T19:41:48.844Z,92.60
2022-09-10T19:44:16.696Z,92.60
2022-09-10T19:46:44.885Z,92.60
2022-09-10T19:49:12.616Z,92.60
2022-09-10T19:51:40.683Z,92.60
2022-09-10T19:54:08.020Z,92.60
2022-09-10T19:56:38.986Z,92.60
2022-09-10T19:59:11.386Z,92.60
2022-09-10T20:01:40.979Z,92.60
2022-09-10T20:04:10.821Z,92.60
2022-09-10T20:06:38.165Z,92.50
2022-09-10T20:09:06.327Z,92.60
2022-09-10T20:11:35.196Z,92.60
2022-09-10T20:14:10.247Z,92.60
2022-09-10T20:16:45.105Z,92.60
2022-09-10T20:19:18.436Z,92.60
2022-09-10T20:21:46.429Z,92.60
2022-09-10T20:24:13.652Z,92.60
2022-09-10T20:26:42.370Z,92.60
2022-09-10T20:29:15.233Z,92.60
2022-09-10T20:31:43.147Z,92.60
2022-09-10T20:34:19.563Z,92.60
2022-09-10T20:36:47.779Z,92.70
2022-09-10T20:39:17.207Z,92.70
2022-09-10T20:41:44.598Z,92.70
2022-09-10T20:44:13.651Z,92.70
2022-09-10T20:46:41.611Z,92.70
2022-09-10T20:49:11.245Z,92.70
2022-09-10T20:51:40.359Z,92.70
2022-09-10T20:54:11.456Z,92.70
2022-09-10T20:56:38.425Z,92.70
2022-09-10T20:59:05.844Z,92.70
2022-09-10T21:01:32.864Z,92.70
2022-09-10T21:04:01.328Z,92.70
2022-09-10T21:06:31.249Z,92.80
2022-09-10T21:08:58.557Z,92.80
2022-09-10T21:11:27.909Z,92.70
2022-09-10T21:13:59.659Z,92.80
2022-09-10T21:16:37.443Z,92.80
2022-09-10T21:19:10.523Z,92.80
2022-09-10T21:21:39.572Z,92.70
2022-09-10T21:24:15.193Z,92.70
2022-09-10T21:26:43.487Z,92.70
2022-09-10T21:29:13.088Z,92.70
2022-09-10T21:31:40.475Z,92.70
2022-09-10T21:34:07.801Z,92.70
2022-09-10T21:36:36.684Z,92.70
2022-09-10T21:39:06.316Z,92.70
2022-09-10T21:41:39.489Z,92.70
2022-09-10T21:44:14.115Z,92.70
2022-09-10T21:46:42.789Z,92.70
2022-09-10T21:49:10.028Z,92.70
2022-09-10T21:51:36.899Z,92.70
2022-09-10T21:54:04.750Z,92.70
2022-09-10T21:56:31.972Z,92.70
2022-09-10T21:59:00.707Z,92.70
2022-09-10T22:01:30.766Z,92.70
2022-09-10T22:04:00.400Z,92.70
2022-09-10T22:06:32.688Z,92.70
2022-09-10T22:09:01.534Z,92.70
2022-09-10T22:11:30.403Z,92.70
2022-09-10T22:14:01.082Z,92.70
2022-09-10T22:16:31.088Z,92.70
2022-09-10T22:18:59.675Z,92.70
2022-09-10T22:21:27.068Z,92.70
2022-09-10T22:23:53.768Z,92.70
2022-09-10T22:26:23.287Z,92.70
2022-09-10T22:28:54.488Z,92.70
2022-09-10T22:31:24.588Z,92.70
2022-09-10T22:33:58.050Z,92.70
2022-09-10T22:36:35.818Z,92.70
2022-09-10T22:39:04.151Z,92.70
2022-09-10T22:41:34.027Z,92.70
2022-09-10T22:44:01.768Z,92.70
2022-09-10T22:46:29.739Z,92.70
2022-09-10T22:48:57.270Z,92.70
2022-09-10T22:51:27.427Z,92.70
2022-09-10T22:53:55.479Z,92.70
2022-09-10T22:56:23.764Z,92.70
2022-09-10T22:58:53.858Z,92.70
2022-09-10T23:01:23.268Z,92.70
2022-09-10T23:03:50.211Z,92.70
2022-09-10T23:06:21.721Z,92.70
2022-09-10T23:08:51.043Z,92.70
2022-09-10T23:11:19.281Z,92.70
2022-09-10T23:13:48.084Z,92.70
2022-09-10T23:16:16.477Z,92.70
2022-09-10T23:18:46.716Z,92.70
2022-09-10T23:21:13.863Z,92.70
2022-09-10T23:23:44.467Z,92.70
2022-09-10T23:26:11.353Z,92.70
2022-09-10T23:28:38.456Z,92.70
2022-09-10T23:31:26.613Z,92.70
2022-09-10T23:33:57.975Z,92.70
2022-09-10T23:36:31.245Z,92.70
2022-09-10T23:39:03.177Z,92.70
2022-09-10T23:41:30.067Z,92.70
2022-09-10T23:43:57.252Z,92.70
2022-09-10T23:46:24.713Z,92.70
2022-09-10T23:48:51.612Z,92.70
2022-09-10T23:51:20.042Z,92.70
2022-09-10T23:53:48.160Z,92.70
2022-09-10T23:56:19.506Z,92.70
2022-09-10T23:58:47.562Z,92.70
